Time;durP1;ratioP1;P1;durP2;ratioP2;P2;SDS_P1;SDS_P2;PMS_P1;PMS_P2;Temp;Humidity;BMP_temperature;BMP_pressure;BME280_temperature;BME280_humidity;BME280_pressure;Samples;Min_cycle;Max_cycle;Signal;HPM_P1;HPM_P2
2021/06/29 00:00:05;;;;;;;5.43;5.03;;;;;;;15.77;88.87;95526.91;4965813;28;20611;-77
2021/06/29 00:02:31;;;;;;;6.15;5.30;;;;;;;15.77;88.89;95526.91;4956779;28;20255;-77
2021/06/29 00:04:56;;;;;;;5.60;5.10;;;;;;;15.81;89.16;95525.56;4956512;28;20180;-76
2021/06/29 00:07:21;;;;;;;7.30;5.63;;;;;;;15.82;88.96;95535.88;4956562;28;20673;-78
2021/06/29 00:09:47;;;;;;;6.32;4.97;;;;;;;15.85;88.33;95542.53;4949236;28;20192;-76
2021/06/29 00:12:13;;;;;;;5.30;4.80;;;;;;;15.90;88.14;95534.94;4967776;28;20183;-77
2021/06/29 00:14:40;;;;;;;5.53;4.70;;;;;;;15.86;88.87;95544.97;4975474;28;20227;-76
2021/06/29 00:17:06;;;;;;;5.80;5.30;;;;;;;15.83;88.84;95541.91;4965336;28;20196;-76
2021/06/29 00:19:31;;;;;;;6.15;5.20;;;;;;;15.84;89.04;95538.31;4961090;28;20195;-76
2021/06/29 00:21:57;;;;;;;6.75;6.15;;;;;;;15.71;89.77;95532.88;4965835;28;20271;-75
2021/06/29 00:24:22;;;;;;;11.40;5.95;;;;;;;15.82;89.51;95527.19;4956179;28;20263;-77
2021/06/29 00:26:47;;;;;;;7.32;6.72;;;;;;;15.84;89.35;95525.22;4956543;28;20192;-77
2021/06/29 00:29:13;;;;;;;8.80;6.78;;;;;;;15.86;89.45;95529.25;4973760;28;20260;-77
2021/06/29 00:31:38;;;;;;;7.07;6.45;;;;;;;15.76;90.05;95502.53;4965117;28;20577;-77
2021/06/29 00:34:03;;;;;;;7.95;7.25;;;;;;;15.84;89.92;95501.66;4957092;28;20602;-77
2021/06/29 00:36:29;;;;;;;8.77;7.88;;;;;;;15.90;89.49;95497.47;4956000;28;20211;-77
2021/06/29 00:38:54;;;;;;;8.48;7.35;;;;;;;15.83;89.80;95490.34;4956133;28;20168;-76
2021/06/29 00:41:19;;;;;;;8.40;7.57;;;;;;;15.83;89.79;95484.31;4960062;28;20274;-78
2021/06/29 00:43:49;;;;;;;8.93;7.68;;;;;;;15.93;89.49;95478.78;4966169;28;20192;-77
2021/06/29 00:46:15;;;;;;;8.60;7.88;;;;;;;15.99;89.27;95468.41;4967915;28;20226;-78
2021/06/29 00:48:41;;;;;;;8.80;8.05;;;;;;;15.90;89.65;95459.00;4975303;28;20176;-78
2021/06/29 00:51:07;;;;;;;9.30;8.45;;;;;;;15.91;89.78;95458.03;4990479;28;20255;-76
2021/06/29 00:53:32;;;;;;;8.45;7.75;;;;;;;15.94;89.79;95462.91;4967005;28;20592;-77
2021/06/29 00:55:58;;;;;;;9.63;8.65;;;;;;;15.87;90.05;95446.28;4957891;28;20209;-77
2021/06/29 00:58:23;;;;;;;10.48;8.20;;;;;;;16.01;89.75;95436.78;4955982;28;20208;-77
2021/06/29 01:00:51;;;;;;;9.73;8.18;;;;;;;15.93;89.91;95439.50;4944300;28;20246;-76
2021/06/29 01:03:16;;;;;;;8.75;8.05;;;;;;;15.97;90.20;95427.66;4966750;28;20187;-77
2021/06/29 01:05:41;;;;;;;9.60;8.80;;;;;;;15.94;90.15;95423.63;4976891;28;20254;-77
2021/06/29 01:08:07;;;;;;;9.90;8.90;;;;;;;15.91;90.32;95399.63;4955789;28;20169;-76
2021/06/29 01:10:32;;;;;;;9.25;8.35;;;;;;;15.96;89.81;95384.94;4955842;28;20176;-77
2021/06/29 01:12:57;;;;;;;9.70;8.80;;;;;;;15.93;90.17;95395.00;4976828;28;20184;-77
2021/06/29 01:15:23;;;;;;;8.38;7.68;;;;;;;16.00;89.98;95367.06;4963322;28;20687;-77
2021/06/29 01:17:53;;;;;;;8.80;7.60;;;;;;;15.96;89.49;95345.66;4955494;28;20339;-78
2021/06/29 01:20:23;;;;;;;8.85;7.88;;;;;;;15.96;89.61;95398.03;4955665;28;20180;-77
2021/06/29 01:22:53;;;;;;;8.90;8.02;;;;;;;15.80;90.48;95419.19;4955921;28;20274;-77
2021/06/29 01:25:19;;;;;;;9.20;8.45;;;;;;;15.70;91.37;95413.44;4966884;28;20182;-77
2021/06/29 01:28:01;;;;;;;10.57;9.57;;;;;;;15.73;91.70;95406.06;4942888;28;20200;-77
2021/06/29 01:32:52;;;;;;;9.07;8.20;;;;;;;15.64;91.31;95443.78;4972920;28;20177;-76
2021/06/29 01:35:17;;;;;;;9.00;8.20;;;;;;;15.70;90.83;95465.78;4961160;28;20223;-77
2021/06/29 01:37:43;;;;;;;9.38;7.70;;;;;;;15.68;91.06;95459.94;4959337;28;20535;-78
2021/06/29 01:40:19;;;;;;;7.65;6.85;;;;;;;15.76;91.00;95471.13;4939547;28;20204;-77
2021/06/29 01:42:50;;;;;;;8.40;7.57;;;;;;;15.81;90.74;95468.78;4956942;28;20726;-77
2021/06/29 01:45:15;;;;;;;8.32;7.47;;;;;;;15.79;90.62;95485.66;4963103;28;20655;-77
2021/06/29 01:47:53;;;;;;;8.18;7.47;;;;;;;15.79;90.50;95490.88;4966634;28;20203;-77
2021/06/29 01:50:18;;;;;;;6.90;6.40;;;;;;;15.80;90.54;95492.50;4974888;28;20180;-76
2021/06/29 01:52:45;;;;;;;7.20;6.50;;;;;;;15.84;89.93;95488.56;4974755;28;20183;-75
2021/06/29 01:55:11;;;;;;;6.28;5.68;;;;;;;15.81;89.65;95508.06;4973377;28;20196;-76
2021/06/29 01:57:37;;;;;;;6.38;5.78;;;;;;;15.81;89.02;95504.59;4983760;28;20219;-77
2021/06/29 02:00:07;;;;;;;5.63;5.22;;;;;;;15.81;89.09;95499.38;4956779;28;20239;-78
2021/06/29 02:02:32;;;;;;;5.85;5.35;;;;;;;15.82;88.62;95507.06;4955577;28;20173;-77
2021/06/29 02:04:58;;;;;;;5.32;4.90;;;;;;;15.86;88.30;95499.66;4972496;28;20251;-78
2021/06/29 02:07:23;;;;;;;5.07;4.47;;;;;;;15.84;87.71;95499.03;4953499;28;20254;-77
2021/06/29 02:09:48;;;;;;;5.07;4.68;;;;;;;15.85;87.44;95505.88;4991985;28;20656;-77
2021/06/29 02:12:13;;;;;;;5.93;4.50;;;;;;;15.90;87.68;95502.72;4958788;28;20180;-78
2021/06/29 02:14:39;;;;;;;5.18;4.60;;;;;;;15.92;87.43;95503.38;4991952;28;20259;-78
2021/06/29 02:17:04;;;;;;;5.30;4.47;;;;;;;15.94;87.40;95504.78;4988317;28;20218;-78
2021/06/29 02:19:30;;;;;;;6.95;4.70;;;;;;;15.93;87.10;95504.97;4980198;28;20212;-77
2021/06/29 02:21:55;;;;;;;5.50;5.00;;;;;;;15.82;87.39;95499.22;4954884;28;20584;-76
2021/06/29 02:24:20;;;;;;;5.25;4.75;;;;;;;15.91;87.33;95510.41;4957508;28;20551;-78
2021/06/29 02:26:45;;;;;;;4.88;4.47;;;;;;;15.82;87.26;95493.16;4958563;28;20219;-78
2021/06/29 02:29:11;;;;;;;5.93;4.85;;;;;;;15.80;87.25;95502.97;4985391;28;20203;-78
2021/06/29 02:31:36;;;;;;;4.88;4.47;;;;;;;15.79;87.77;95489.09;4980586;28;20208;-78
2021/06/29 02:34:01;;;;;;;4.30;4.00;;;;;;;15.82;87.40;95501.84;4958548;28;20634;-77
2021/06/29 02:36:27;;;;;;;5.00;4.53;;;;;;;15.78;87.47;95502.34;4958296;28;20216;-76
2021/06/29 02:38:52;;;;;;;6.55;4.40;;;;;;;15.82;86.73;95501.03;4982446;28;20227;-78
2021/06/29 02:41:18;;;;;;;6.38;3.80;;;;;;;15.75;86.60;95505.34;4988005;28;20670;-77
2021/06/29 02:43:43;;;;;;;4.35;4.03;;;;;;;15.74;86.73;95509.78;4977393;28;20176;-77
2021/06/29 02:46:08;;;;;;;6.15;4.28;;;;;;;15.76;86.83;95507.78;4977375;28;20238;-78
2021/06/29 02:48:34;;;;;;;5.18;3.72;;;;;;;15.81;86.34;95500.22;4976487;28;20855;-77
2021/06/29 02:50:59;;;;;;;4.55;4.03;;;;;;;15.79;86.38;95503.97;4967863;28;20202;-77
2021/06/29 02:53:24;;;;;;;4.60;4.00;;;;;;;15.66;86.80;95506.44;4975080;28;20616;-78
2021/06/29 02:55:50;;;;;;;7.10;4.53;;;;;;;15.84;86.63;95491.16;4958189;28;20283;-78
2021/06/29 02:58:15;;;;;;;4.82;4.38;;;;;;;15.72;86.95;95501.25;4975641;28;20688;-78
2021/06/29 03:00:40;;;;;;;4.80;4.45;;;;;;;15.54;88.55;95517.28;4964429;28;20349;-78
2021/06/29 03:03:06;;;;;;;6.35;5.85;;;;;;;15.53;89.16;95530.56;4966045;28;20327;-78
2021/06/29 03:05:31;;;;;;;6.03;5.53;;;;;;;15.53;89.63;95523.50;4958037;28;20180;-78
2021/06/29 03:07:56;;;;;;;6.97;6.32;;;;;;;15.62;89.89;95524.28;4958047;28;20188;-77
2021/06/29 03:10:22;;;;;;;15.77;7.32;;;;;;;15.57;90.06;95518.75;4977490;28;20184;-76
2021/06/29 03:12:47;;;;;;;8.20;6.53;;;;;;;15.63;90.38;95512.00;4965980;28;20184;-78
2021/06/29 03:15:12;;;;;;;6.57;6.07;;;;;;;15.55;90.05;95511.09;4957504;28;20301;-77
2021/06/29 03:17:38;;;;;;;5.65;5.25;;;;;;;15.61;89.91;95508.75;4957718;28;20776;-78
2021/06/29 03:20:05;;;;;;;5.15;4.63;;;;;;;15.65;89.28;95510.03;4941799;28;20180;-79
2021/06/29 03:22:30;;;;;;;5.57;5.05;;;;;;;15.54;89.39;95501.59;4966800;28;20556;-78
2021/06/29 03:24:55;;;;;;;5.20;4.80;;;;;;;15.63;88.77;95498.91;4943437;28;20192;-77
2021/06/29 03:27:21;;;;;;;5.57;5.00;;;;;;;15.51;88.87;95483.63;4973832;28;20204;-78
2021/06/29 03:29:46;;;;;;;5.35;4.57;;;;;;;15.68;87.97;95473.84;4957501;28;20186;-77
2021/06/29 03:32:12;;;;;;;5.25;4.85;;;;;;;15.57;87.80;95464.59;4967460;28;20180;-78
2021/06/29 03:34:37;;;;;;;5.35;4.85;;;;;;;15.54;88.27;95478.03;4967346;28;20263;-78
2021/06/29 03:37:04;;;;;;;8.18;5.00;;;;;;;15.47;88.34;95466.69;4976909;28;20203;-78
2021/06/29 03:39:33;;;;;;;5.45;4.95;;;;;;;15.43;88.87;95460.16;4961111;28;20532;-78
2021/06/29 03:41:59;;;;;;;6.38;4.85;;;;;;;15.44;89.30;95455.75;4975042;28;20195;-78
2021/06/29 03:44:24;;;;;;;6.28;5.07;;;;;;;15.45;89.38;95457.34;4965062;28;20181;-78
2021/06/29 03:46:50;;;;;;;5.10;4.68;;;;;;;15.50;89.08;95452.41;4941328;28;20196;-77
2021/06/29 03:49:15;;;;;;;7.68;5.35;;;;;;;15.45;89.16;95439.84;4957139;28;20187;-77
2021/06/29 03:51:41;;;;;;;6.30;5.20;;;;;;;15.39;89.40;95439.78;4974592;28;20696;-77
2021/06/29 03:54:06;;;;;;;5.53;4.70;;;;;;;15.36;89.61;95458.44;4963652;28;20619;-78
2021/06/29 03:56:32;;;;;;;5.25;4.75;;;;;;;15.40;89.18;95455.28;4962429;28;20215;-78
2021/06/29 03:59:08;;;;;;;5.72;5.25;;;;;;;15.40;88.86;95454.50;4974417;28;20191;-78
2021/06/29 04:01:34;;;;;;;5.57;5.05;;;;;;;15.46;88.81;95451.13;4957072;28;20242;-77
2021/06/29 04:04:00;;;;;;;6.15;4.55;;;;;;;15.43;88.31;95451.50;4949048;28;20188;-78
2021/06/29 04:06:27;;;;;;;5.15;4.20;;;;;;;15.39;88.55;95452.88;4959863;28;20203;-77
2021/06/29 04:08:54;;;;;;;7.35;4.90;;;;;;;15.37;88.61;95447.81;4976194;28;20191;-77
2021/06/29 04:11:19;;;;;;;6.03;4.63;;;;;;;15.41;88.53;95446.44;4976161;28;20263;-76
2021/06/29 04:13:45;;;;;;;5.15;4.63;;;;;;;15.29;88.86;95433.00;4974967;28;20215;-78
2021/06/29 04:16:10;;;;;;;7.10;4.68;;;;;;;15.32;88.89;95420.56;4956355;28;20204;-78
2021/06/29 04:18:36;;;;;;;6.10;5.03;;;;;;;15.27;89.20;95427.13;4956691;28;20225;-78
2021/06/29 04:21:01;;;;;;;5.00;4.60;;;;;;;15.17;89.55;95417.91;4974109;28;20184;-76
2021/06/29 04:23:26;;;;;;;5.40;4.47;;;;;;;15.20;89.37;95415.78;4940007;28;20188;-77
2021/06/29 04:25:52;;;;;;;5.57;5.07;;;;;;;15.25;89.19;95405.56;4958642;28;20207;-78
2021/06/29 04:28:17;;;;;;;6.35;4.28;;;;;;;15.27;89.00;95398.34;4963684;28;20187;-77
2021/06/29 04:30:43;;;;;;;4.63;4.28;;;;;;;15.31;88.60;95396.19;4940547;28;20191;-78
2021/06/29 04:33:08;;;;;;;5.13;4.28;;;;;;;15.31;88.16;95398.81;4973725;28;20192;-78
2021/06/29 04:35:33;;;;;;;4.03;3.72;;;;;;;15.28;87.89;95393.91;4960998;28;20737;-77
2021/06/29 04:37:59;;;;;;;4.10;3.25;;;;;;;15.27;88.00;95394.91;4949788;28;20212;-78
2021/06/29 04:40:24;;;;;;;4.35;3.28;;;;;;;15.36;87.21;95388.59;4972851;28;20180;-78
2021/06/29 04:42:49;;;;;;;3.75;3.42;;;;;;;15.44;87.20;95391.13;4960577;28;20682;-77
2021/06/29 04:45:15;;;;;;;3.67;3.38;;;;;;;15.52;86.83;95401.50;4964159;28;20181;-77
2021/06/29 04:47:46;;;;;;;3.67;3.42;;;;;;;15.48;86.64;95395.03;4973603;28;20607;-78
2021/06/29 04:50:13;;;;;;;4.60;4.20;;;;;;;15.44;86.48;95406.03;4941219;28;20207;-77
2021/06/29 04:52:38;;;;;;;5.13;3.35;;;;;;;15.36;86.95;95401.69;4956480;28;20173;-76
2021/06/29 04:55:04;;;;;;;6.07;3.15;;;;;;;15.38;86.94;95399.72;4965325;28;20207;-79
2021/06/29 04:57:30;;;;;;;5.38;3.40;;;;;;;15.41;86.91;95394.13;4961396;28;20580;-78
2021/06/29 04:59:55;;;;;;;4.10;3.42;;;;;;;15.36;86.94;95400.88;4957838;28;20253;-77
2021/06/29 05:02:20;;;;;;;3.22;3.00;;;;;;;15.38;86.33;95404.16;4983514;28;20216;-76
2021/06/29 05:04:46;;;;;;;3.08;2.75;;;;;;;15.46;85.79;95401.41;4980707;28;20282;-77
2021/06/29 05:07:11;;;;;;;3.35;3.03;;;;;;;15.44;85.03;95396.38;4951379;28;20570;-77
2021/06/29 05:09:36;;;;;;;3.88;3.10;;;;;;;15.52;85.06;95390.22;4975356;28;20242;-77
2021/06/29 05:12:02;;;;;;;3.22;2.92;;;;;;;15.57;84.99;95388.69;4975188;28;20788;-78
2021/06/29 05:14:27;;;;;;;5.47;3.40;;;;;;;15.58;85.11;95382.47;4991391;28;20278;-77
2021/06/29 05:16:53;;;;;;;3.47;3.10;;;;;;;15.63;85.20;95371.47;4950101;28;20206;-77
2021/06/29 05:19:18;;;;;;;3.80;2.92;;;;;;;15.71;85.22;95381.03;4955905;28;20184;-78
2021/06/29 05:21:43;;;;;;;3.20;2.90;;;;;;;15.79;85.09;95378.31;4970234;28;20546;-78
2021/06/29 05:24:09;;;;;;;3.58;2.63;;;;;;;15.80;85.02;95387.78;4968145;28;20275;-75
2021/06/29 05:26:34;;;;;;;3.00;2.70;;;;;;;15.87;84.94;95391.28;4984256;28;20207;-77
2021/06/29 05:29:00;;;;;;;3.25;2.95;;;;;;;15.88;84.73;95384.25;4956811;28;20180;-77
2021/06/29 05:31:26;;;;;;;3.95;3.08;;;;;;;15.87;84.38;95375.59;4939337;28;20555;-76
2021/06/29 05:33:51;;;;;;;3.00;2.63;;;;;;;15.94;84.28;95376.47;4955076;28;20181;-77
2021/06/29 05:36:16;;;;;;;2.97;2.53;;;;;;;16.05;83.78;95388.28;4975129;28;20212;-78
2021/06/29 05:38:42;;;;;;;4.47;2.75;;;;;;;16.08;83.86;95375.63;4947582;28;20232;-77
2021/06/29 05:41:07;;;;;;;2.35;2.22;;;;;;;16.07;82.75;95379.22;4939389;28;20188;-75
2021/06/29 05:43:32;;;;;;;2.72;2.42;;;;;;;16.18;82.73;95380.56;4972879;28;20204;-78
2021/06/29 05:45:58;;;;;;;2.85;2.65;;;;;;;16.28;83.03;95396.78;4955598;28;20208;-77
2021/06/29 05:48:23;;;;;;;2.70;2.53;;;;;;;16.40;83.33;95394.47;4981871;28;20215;-77
2021/06/29 05:50:49;;;;;;;3.40;3.10;;;;;;;16.42;83.07;95393.28;4983713;28;20180;-77
2021/06/29 05:53:15;;;;;;;3.33;3.03;;;;;;;16.51;83.39;95387.91;4959354;28;20226;-77
2021/06/29 05:55:40;;;;;;;5.20;2.67;;;;;;;16.63;83.41;95383.81;4975359;28;20179;-78
2021/06/29 05:58:06;;;;;;;3.00;2.80;;;;;;;16.62;83.31;95393.47;4972271;28;20234;-77
2021/06/29 06:00:31;;;;;;;5.13;3.05;;;;;;;16.60;83.50;95392.84;4966353;28;20180;-77
2021/06/29 06:02:56;;;;;;;3.28;3.05;;;;;;;16.75;83.13;95384.13;4958412;28;20192;-77
2021/06/29 06:05:22;;;;;;;3.45;3.15;;;;;;;16.79;81.59;95394.06;4944681;28;20228;-76
2021/06/29 06:07:47;;;;;;;4.47;2.60;;;;;;;16.65;81.56;95390.47;4979239;28;20290;-76
2021/06/29 06:10:14;;;;;;;3.63;2.58;;;;;;;16.75;81.39;95390.19;4951797;28;20177;-76
2021/06/29 06:12:39;;;;;;;3.40;2.53;;;;;;;16.87;81.90;95377.34;4975203;28;20201;-77
2021/06/29 06:15:06;;;;;;;3.25;2.47;;;;;;;16.97;80.88;95370.00;4959094;28;20177;-76
2021/06/29 06:17:31;;;;;;;3.78;2.80;;;;;;;16.89;81.37;95368.31;4959096;28;20219;-77
2021/06/29 06:19:56;;;;;;;2.97;2.53;;;;;;;16.93;81.65;95366.09;4964649;28;20189;-76
2021/06/29 06:22:22;;;;;;;3.40;2.58;;;;;;;16.89;81.52;95367.50;4972579;28;20206;-76
2021/06/29 06:24:47;;;;;;;5.75;2.60;;;;;;;17.17;80.84;95372.72;4994745;28;20215;-76
2021/06/29 06:27:14;;;;;;;4.07;2.33;;;;;;;16.97;80.22;95381.28;4995465;28;20191;-76
2021/06/29 06:29:40;;;;;;;2.90;2.70;;;;;;;16.94;80.51;95368.53;4960830;28;20188;-77
2021/06/29 06:32:06;;;;;;;2.92;2.72;;;;;;;17.08;81.10;95363.41;4969412;28;20180;-77
2021/06/29 06:34:31;;;;;;;2.90;2.58;;;;;;;17.28;79.68;95361.69;4977918;28;20192;-77
2021/06/29 06:36:56;;;;;;;4.72;2.70;;;;;;;17.72;78.75;95363.16;4976208;28;20196;-75
2021/06/29 06:39:22;;;;;;;3.13;2.92;;;;;;;18.15;76.45;95365.50;4958176;28;20184;-76
2021/06/29 06:41:47;;;;;;;2.90;2.70;;;;;;;18.13;75.87;95368.34;4970979;28;20187;-76
2021/06/29 06:44:12;;;;;;;2.50;2.30;;;;;;;18.56;74.79;95365.38;4957953;28;20606;-75
2021/06/29 06:46:38;;;;;;;2.72;2.53;;;;;;;19.37;71.22;95365.13;4957520;28;20197;-74
2021/06/29 06:49:03;;;;;;;2.38;2.17;;;;;;;19.94;69.77;95360.91;4994321;28;20687;-74
2021/06/29 06:51:29;;;;;;;2.17;2.08;;;;;;;20.68;66.95;95368.19;4970526;28;20220;-74
2021/06/29 06:53:54;;;;;;;2.42;2.22;;;;;;;22.43;61.64;95367.75;4988878;28;20278;-75
2021/06/29 06:56:19;;;;;;;2.42;1.83;;;;;;;23.78;56.72;95364.31;4969958;28;20210;-75
2021/06/29 06:58:46;;;;;;;1.90;1.80;;;;;;;23.94;54.68;95364.41;4976688;28;20745;-74
2021/06/29 07:01:12;;;;;;;1.73;1.60;;;;;;;24.18;53.05;95361.63;4976390;28;20226;-74
2021/06/29 07:03:38;;;;;;;1.42;1.33;;;;;;;23.81;49.57;95367.28;4969417;28;20202;-75
2021/06/29 07:06:05;;;;;;;1.73;1.60;;;;;;;24.52;47.50;95359.91;4957993;28;20204;-75
2021/06/29 07:08:30;;;;;;;3.10;1.50;;;;;;;25.92;44.74;95361.50;4957488;28;20595;-75
2021/06/29 07:10:57;;;;;;;2.17;1.52;;;;;;;25.97;45.60;95352.75;4973579;28;20177;-74
2021/06/29 07:13:22;;;;;;;2.88;1.60;;;;;;;27.42;41.48;95355.44;4968668;28;20176;-75
2021/06/29 07:15:47;;;;;;;2.03;1.48;;;;;;;26.20;42.24;95357.81;4944432;28;20204;-75
2021/06/29 07:18:16;;;;;;;2.10;1.50;;;;;;;26.93;40.84;95352.91;4957868;28;20584;-76
2021/06/29 07:20:43;;;;;;;3.05;1.52;;;;;;;26.88;41.72;95360.88;4962612;28;20193;-76
2021/06/29 07:23:09;;;;;;;2.22;1.30;;;;;;;26.44;41.57;95360.22;4963804;28;20203;-75
2021/06/29 07:25:34;;;;;;;2.10;1.40;;;;;;;26.49;43.50;95352.25;4965072;28;20184;-75
2021/06/29 07:27:59;;;;;;;1.88;1.40;;;;;;;26.59;42.35;95348.88;4942009;28;20177;-76
2021/06/29 07:30:25;;;;;;;1.52;1.42;;;;;;;25.91;43.92;95356.41;4958125;28;20173;-77
2021/06/29 07:32:53;;;;;;;1.70;1.60;;;;;;;27.48;40.96;95358.94;4959327;28;20184;-75
2021/06/29 07:35:19;;;;;;;1.50;1.40;;;;;;;27.52;40.32;95355.47;4989969;28;20188;-76
2021/06/29 07:37:44;;;;;;;1.55;1.45;;;;;;;28.20;38.72;95344.84;4974224;28;20635;-76
2021/06/29 07:40:10;;;;;;;1.33;1.23;;;;;;;27.38;40.29;95343.66;4978432;28;20180;-76
2021/06/29 07:42:35;;;;;;;1.60;1.50;;;;;;;27.11;39.86;95343.75;4977943;28;20690;-78
2021/06/29 07:45:03;;;;;;;3.88;1.60;;;;;;;26.20;43.01;95344.50;4975126;28;20184;-77
2021/06/29 07:47:28;;;;;;;2.35;2.15;;;;;;;26.74;42.40;95339.19;4946834;28;20201;-77
2021/06/29 07:49:53;;;;;;;1.77;1.67;;;;;;;26.57;43.23;95348.34;4974003;28;20186;-78
2021/06/29 07:52:19;;;;;;;2.67;1.50;;;;;;;26.41;42.43;95344.72;4961280;28;20190;-78
2021/06/29 07:54:44;;;;;;;2.67;1.50;;;;;;;24.25;47.11;95333.13;4976445;28;20195;-78
2021/06/29 07:57:10;;;;;;;2.10;1.90;;;;;;;23.51;50.89;95329.53;4965495;28;20204;-78
2021/06/29 07:59:35;;;;;;;2.50;2.00;;;;;;;22.37;55.31;95323.72;4960004;28;20183;-77
2021/06/29 08:02:00;;;;;;;2.58;2.38;;;;;;;22.10;55.51;95320.63;4974637;28;20184;-76
2021/06/29 08:04:26;;;;;;;2.10;1.90;;;;;;;21.53;56.88;95309.53;4976379;28;20187;-76
2021/06/29 08:06:51;;;;;;;2.80;1.90;;;;;;;21.23;57.30;95307.59;4961798;28;20197;-78
2021/06/29 08:09:16;;;;;;;3.35;1.85;;;;;;;21.45;57.53;95313.28;4959969;28;20183;-78
2021/06/29 08:11:42;;;;;;;2.45;2.25;;;;;;;21.10;60.14;95303.25;4958653;28;20777;-78
2021/06/29 08:14:07;;;;;;;1.92;1.83;;;;;;;20.68;61.04;95306.72;4979312;28;20220;-78
2021/06/29 08:16:32;;;;;;;2.88;1.83;;;;;;;20.85;58.45;95308.59;4969635;28;20274;-76
2021/06/29 08:18:58;;;;;;;2.35;2.00;;;;;;;21.10;59.67;95300.59;4959781;28;20298;-76
2021/06/29 08:21:23;;;;;;;2.58;2.20;;;;;;;21.00;61.01;95295.03;4981861;28;20259;-76
2021/06/29 08:23:48;;;;;;;1.85;1.75;;;;;;;21.21;59.65;95297.25;4956672;28;20979;-77
2021/06/29 08:26:14;;;;;;;2.05;1.80;;;;;;;20.75;58.63;95297.69;4984102;28;20287;-77
2021/06/29 08:28:39;;;;;;;3.15;2.10;;;;;;;21.12;59.01;95297.78;4978748;28;20179;-75
2021/06/29 08:31:05;;;;;;;2.45;1.92;;;;;;;21.08;58.58;95294.75;4957426;28;20176;-76
2021/06/29 08:33:30;;;;;;;2.28;2.08;;;;;;;21.25;58.25;95296.81;4974502;28;20191;-78
2021/06/29 08:35:56;;;;;;;1.95;1.60;;;;;;;21.24;59.63;95289.91;4966761;28;20231;-77
2021/06/29 08:38:23;;;;;;;2.10;1.90;;;;;;;21.39;57.51;95299.13;4946981;28;20702;-78
2021/06/29 08:40:48;;;;;;;2.22;2.00;;;;;;;21.63;60.55;95294.75;4940733;28;20177;-78
2021/06/29 08:43:14;;;;;;;2.28;1.88;;;;;;;22.38;57.17;95302.31;4956232;28;20527;-77
2021/06/29 08:45:40;;;;;;;2.35;1.95;;;;;;;22.54;58.34;95296.38;4959026;28;20271;-76
2021/06/29 08:48:06;;;;;;;2.45;1.85;;;;;;;23.44;54.83;95295.22;4982780;28;20255;-77
2021/06/29 08:50:32;;;;;;;2.13;2.03;;;;;;;23.28;54.31;95286.13;4957002;28;20624;-77
2021/06/29 08:52:58;;;;;;;1.80;1.70;;;;;;;24.43;53.05;95273.75;4956820;28;20180;-76
2021/06/29 08:55:36;;;;;;;1.73;1.63;;;;;;;24.06;53.65;95281.31;4972507;28;20215;-75
2021/06/29 08:58:01;;;;;;;1.55;1.45;;;;;;;23.67;49.58;95279.25;4987623;28;20224;-78
2021/06/29 09:00:26;;;;;;;1.30;1.20;;;;;;;24.15;47.87;95282.53;4970282;28;20308;-77
2021/06/29 09:02:52;;;;;;;1.48;1.35;;;;;;;24.20;48.21;95264.84;4976387;28;20326;-78
2021/06/29 09:05:23;;;;;;;2.22;1.20;;;;;;;24.21;47.13;95260.38;4975751;28;20262;-78
2021/06/29 09:08:06;;;;;;;1.60;1.50;;;;;;;24.72;49.19;95269.16;4974988;28;20215;-78
2021/06/29 09:10:32;;;;;;;1.38;1.30;;;;;;;24.59;48.75;95265.00;4946689;28;20192;-78
2021/06/29 09:12:57;;;;;;;1.98;1.30;;;;;;;24.20;49.03;95254.22;4940889;28;20183;-78
2021/06/29 09:15:41;;;;;;;1.55;1.45;;;;;;;24.54;49.27;95255.09;4956957;28;20184;-78
2021/06/29 09:18:06;;;;;;;1.60;1.50;;;;;;;24.86;48.99;95255.31;4959853;28;20200;-78
2021/06/29 09:20:39;;;;;;;1.70;1.60;;;;;;;24.94;48.40;95253.28;4976591;28;20191;-78
2021/06/29 09:23:16;;;;;;;2.22;1.35;;;;;;;25.05;48.50;95255.88;4957340;28;20255;-77
2021/06/29 09:25:44;;;;;;;2.35;1.67;;;;;;;24.33;48.71;95263.78;4958383;28;20184;-77
2021/06/29 09:28:15;;;;;;;1.58;1.48;;;;;;;24.58;48.66;95256.22;4957860;28;20172;-78
2021/06/29 09:30:46;;;;;;;1.73;1.63;;;;;;;24.13;50.31;95266.06;4959658;28;20184;-76
2021/06/29 09:33:21;;;;;;;1.80;1.60;;;;;;;24.55;47.21;95261.19;4961006;28;20262;-76
2021/06/29 09:35:55;;;;;;;2.33;1.55;;;;;;;24.58;48.48;95252.78;4979845;28;20183;-77
2021/06/29 09:38:26;;;;;;;1.90;1.80;;;;;;;23.93;48.83;95259.31;4971587;28;20200;-76
2021/06/29 09:40:54;;;;;;;1.63;1.52;;;;;;;24.01;48.30;95253.66;4962210;28;20184;-77
2021/06/29 09:43:19;;;;;;;3.28;1.50;;;;;;;23.76;50.08;95249.72;4944159;28;20216;-77
2021/06/29 09:45:47;;;;;;;1.50;1.40;;;;;;;24.10;49.37;95242.66;4960601;28;20204;-76
2021/06/29 09:48:18;;;;;;;2.78;1.73;;;;;;;25.05;46.84;95245.25;4995559;28;20216;-75
2021/06/29 09:50:49;;;;;;;2.47;1.40;;;;;;;25.98;44.30;95239.97;4968293;28;20179;-76
2021/06/29 09:53:21;;;;;;;1.30;1.20;;;;;;;25.54;45.07;95226.72;4955923;28;20645;-76
2021/06/29 09:55:49;;;;;;;1.50;1.10;;;;;;;25.76;43.60;95221.41;4983907;28;20267;-77
2021/06/29 09:58:15;;;;;;;4.13;1.52;;;;;;;25.36;45.57;95224.38;4966609;28;20748;-77
2021/06/29 10:01:18;;;;;;;2.63;1.30;;;;;;;24.09;46.39;95219.81;4972323;28;20676;-76
2021/06/29 10:03:44;;;;;;;1.90;1.70;;;;;;;24.51;49.89;95220.28;4975925;28;20192;-78
2021/06/29 10:06:23;;;;;;;2.90;1.60;;;;;;;24.55;48.29;95221.38;4960490;28;20208;-78
2021/06/29 10:08:51;;;;;;;1.73;1.48;;;;;;;23.49;49.84;95215.00;4962705;28;20183;-77
2021/06/29 10:11:21;;;;;;;2.25;1.58;;;;;;;24.00;50.77;95214.91;4952079;28;20181;-77
2021/06/29 10:14:02;;;;;;;2.83;1.20;;;;;;;24.51;47.96;95217.63;4969500;28;20338;-77
2021/06/29 10:16:33;;;;;;;2.65;1.50;;;;;;;24.14;48.72;95215.41;4996728;28;20202;-76
2021/06/29 10:21:27;;;;;;;3.03;1.75;;;;;;;23.66;48.31;95213.22;4970470;28;20180;-77
2021/06/29 10:23:56;;;;;;;1.27;1.17;;;;;;;23.12;50.53;95200.25;4961712;28;20185;-78
2021/06/29 10:26:23;;;;;;;1.75;1.65;;;;;;;23.49;49.80;95199.09;4943644;28;20201;-76
2021/06/29 10:28:50;;;;;;;1.73;1.40;;;;;;;23.41;49.65;95195.81;4959864;28;20176;-78
2021/06/29 10:31:18;;;;;;;1.38;1.27;;;;;;;23.23;48.65;95188.00;4966881;28;20216;-78
2021/06/29 10:33:44;;;;;;;1.27;1.17;;;;;;;23.33;48.78;95187.41;4967588;28;20547;-77
2021/06/29 10:36:09;;;;;;;1.70;1.38;;;;;;;23.71;48.21;95190.28;4959242;28;20212;-79
2021/06/29 10:38:35;;;;;;;2.72;1.30;;;;;;;23.63;46.91;95187.22;4959987;28;20208;-78
2021/06/29 10:41:01;;;;;;;2.95;1.90;;;;;;;23.64;49.67;95180.88;4961501;28;20198;-79
2021/06/29 10:43:26;;;;;;;2.33;2.13;;;;;;;23.51;52.62;95179.28;4953071;28;20178;-77
2021/06/29 10:45:52;;;;;;;1.85;1.75;;;;;;;24.07;50.53;95187.44;4958396;28;20201;-78
2021/06/29 10:48:22;;;;;;;2.22;1.63;;;;;;;24.04;48.94;95187.94;4959047;28;20241;-76
2021/06/29 10:50:48;;;;;;;4.28;1.95;;;;;;;23.59;49.51;95186.88;4958550;28;20607;-78
2021/06/29 10:53:43;;;;;;;2.33;1.90;;;;;;;23.53;51.62;95176.41;4959074;28;20208;-78
2021/06/29 10:56:16;;;;;;;1.90;1.80;;;;;;;23.73;50.53;95182.09;4978178;28;20739;-78
2021/06/29 10:58:51;;;;;;;2.10;1.90;;;;;;;23.56;51.96;95191.81;4978608;28;20705;-79
2021/06/29 11:01:32;;;;;;;1.90;1.80;;;;;;;23.41;49.83;95189.66;4957109;28;20176;-78
2021/06/29 11:04:03;;;;;;;2.08;1.80;;;;;;;23.12;51.38;95187.00;4968298;28;20193;-77
2021/06/29 11:06:44;;;;;;;1.98;1.88;;;;;;;23.04;51.54;95184.72;4964553;28;20196;-78
2021/06/29 11:09:11;;;;;;;1.75;1.52;;;;;;;23.61;51.65;95194.59;4958303;28;20200;-78
2021/06/29 11:11:37;;;;;;;1.80;1.70;;;;;;;23.88;50.56;95190.31;4958046;28;20184;-75
2021/06/29 11:14:02;;;;;;;2.15;2.03;;;;;;;23.30;50.26;95191.31;4962980;28;20541;-79
2021/06/29 11:16:50;;;;;;;2.20;1.42;;;;;;;22.87;51.20;95184.63;4947325;28;20199;-77
2021/06/29 11:19:15;;;;;;;2.38;1.95;;;;;;;22.63;51.69;95183.03;4958040;28;20552;-77
2021/06/29 11:21:40;;;;;;;2.00;1.80;;;;;;;22.75;53.25;95180.38;4941411;28;20181;-75
2021/06/29 11:24:51;;;;;;;1.92;1.80;;;;;;;23.07;53.24;95180.81;4962246;28;20191;-76
2021/06/29 11:27:54;;;;;;;1.70;1.60;;;;;;;22.86;52.82;95176.94;4971383;28;20299;-77
2021/06/29 11:30:57;;;;;;;2.58;1.80;;;;;;;23.43;49.94;95172.50;4974648;28;20180;-77
2021/06/29 11:33:30;;;;;;;1.95;1.75;;;;;;;23.03;50.78;95166.41;4975504;28;20203;-75
2021/06/29 11:35:55;;;;;;;4.10;1.90;;;;;;;22.70;50.87;95172.31;4957120;28;20211;-76
2021/06/29 11:38:38;;;;;;;3.22;1.77;;;;;;;23.02;51.18;95167.47;4969628;28;20207;-75